Time;durP1;ratioP1;P1;durP2;ratioP2;P2;SDS_P1;SDS_P2;PMS_P1;PMS_P2;Temp;Humidity;BMP_temperature;BMP_pressure;BME280_temperature;BME280_humidity;BME280_pressure;Samples;Min_cycle;Max_cycle;Signal;HPM_P1;HPM_P2
2022/06/05 00:01:29;;;;;;;2.45;2.25;;;;;;;19.33;72.07;98635.91;4155991;28;20274;-55
2022/06/05 00:03:42;;;;;;;2.60;2.40;;;;;;;19.40;71.74;98616.91;4153458;28;20699;-54
2022/06/05 00:06:13;;;;;;;2.42;2.20;;;;;;;19.33;71.99;98606.22;4155325;28;20570;-54
2022/06/05 00:08:44;;;;;;;2.58;2.38;;;;;;;19.23;72.44;98591.66;4137047;28;20217;-55
2022/06/05 00:10:53;;;;;;;2.42;2.22;;;;;;;19.35;71.69;98592.00;4138065;28;20202;-57
2022/06/05 00:12:58;;;;;;;1.98;1.65;;;;;;;19.45;71.48;98586.28;4151971;28;20267;-55
2022/06/05 00:14:59;;;;;;;1.58;1.48;;;;;;;19.51;71.55;98579.53;4141497;28;20213;-53
2022/06/05 00:17:01;;;;;;;2.30;2.10;;;;;;;19.55;71.16;98574.97;4133778;28;20210;-53
2022/06/05 00:19:03;;;;;;;2.17;1.98;;;;;;;19.61;70.81;98576.53;4119422;28;20249;-55
2022/06/05 00:21:08;;;;;;;2.10;1.90;;;;;;;19.61;71.43;98568.19;4156574;28;20209;-54
2022/06/05 00:23:10;;;;;;;2.05;1.75;;;;;;;19.63;71.54;98568.72;4155833;28;20289;-53
2022/06/05 00:25:13;;;;;;;2.35;2.20;;;;;;;19.60;72.37;98566.56;4132375;28;20284;-54
2022/06/05 00:27:24;;;;;;;2.92;2.20;;;;;;;19.64;71.88;98567.59;4137749;28;20311;-53
2022/06/05 00:30:03;;;;;;;1.85;1.75;;;;;;;19.66;71.68;98576.44;4138607;28;20705;-53
2022/06/05 00:32:11;;;;;;;2.25;1.92;;;;;;;19.64;71.81;98584.25;4132437;28;20197;-53
2022/06/05 00:34:13;;;;;;;4.55;1.92;;;;;;;19.64;72.15;98578.72;4152219;28;20216;-55
2022/06/05 00:36:33;;;;;;;7.13;1.67;;;;;;;19.65;72.12;98580.34;4140661;28;20202;-53
2022/06/05 00:38:41;;;;;;;5.30;1.63;;;;;;;19.67;72.18;98575.31;4156007;28;20200;-54
2022/06/05 00:40:55;;;;;;;3.03;2.03;;;;;;;19.66;72.20;98573.66;4141889;28;20213;-55
2022/06/05 00:42:58;;;;;;;2.22;2.03;;;;;;;19.67;72.34;98578.91;4136539;28;20293;-55
2022/06/05 00:45:06;;;;;;;1.65;1.55;;;;;;;19.67;72.64;98578.09;4135860;28;20251;-53
2022/06/05 00:47:10;;;;;;;1.92;1.83;;;;;;;19.61;73.15;98568.19;4136956;28;20209;-54
2022/06/05 00:49:12;;;;;;;1.58;1.48;;;;;;;19.64;72.86;98573.97;4133104;28;20329;-53
2022/06/05 00:51:14;;;;;;;1.88;1.77;;;;;;;19.65;73.06;98575.59;4131045;28;20652;-54
2022/06/05 00:53:16;;;;;;;2.20;2.00;;;;;;;19.70;72.96;98574.69;4131972;28;20236;-55
2022/06/05 00:55:18;;;;;;;2.95;2.47;;;;;;;19.70;72.77;98566.34;4135030;28;21548;-53
2022/06/05 00:57:20;;;;;;;1.85;1.67;;;;;;;19.70;72.95;98561.63;4131923;28;20205;-56
2022/06/05 00:59:22;;;;;;;2.10;1.90;;;;;;;19.70;72.90;98560.78;4126330;28;20213;-56
2022/06/05 01:01:25;;;;;;;1.95;1.85;;;;;;;19.66;73.48;98566.13;4144082;28;20304;-55
2022/06/05 01:03:27;;;;;;;1.92;1.83;;;;;;;19.64;72.84;98557.31;4128136;28;20237;-54
2022/06/05 01:05:29;;;;;;;1.80;1.70;;;;;;;19.64;73.08;98562.06;4119648;28;20327;-55
2022/06/05 01:07:31;;;;;;;1.80;1.70;;;;;;;19.64;73.53;98556.50;4151163;28;20244;-53
2022/06/05 01:09:33;;;;;;;1.83;1.73;;;;;;;19.65;73.38;98547.03;4116537;28;20206;-55
2022/06/05 01:11:55;;;;;;;2.15;1.98;;;;;;;19.55;74.30;98541.66;4151527;28;20212;-54
2022/06/05 01:14:26;;;;;;;2.20;2.00;;;;;;;19.31;75.67;98524.38;4136346;28;20244;-54
2022/06/05 01:16:34;;;;;;;2.22;2.00;;;;;;;19.33;75.02;98516.56;4137099;28;20209;-55
2022/06/05 01:19:06;;;;;;;2.58;2.38;;;;;;;19.13;75.81;98484.41;4125483;28;20205;-56
2022/06/05 01:21:08;;;;;;;2.47;2.28;;;;;;;18.89;76.68;98472.69;4130146;28;20624;-55
2022/06/05 01:23:27;;;;;;;3.33;3.10;;;;;;;19.01;76.45;98483.28;4143630;28;20236;-55
2022/06/05 01:25:30;;;;;;;3.42;2.53;;;;;;;19.14;75.76;98476.94;4129801;28;20209;-55
2022/06/05 01:27:36;;;;;;;2.75;2.55;;;;;;;19.16;75.68;98474.66;4145226;28;21287;-54
2022/06/05 01:29:48;;;;;;;2.53;2.33;;;;;;;19.18;75.52;98459.34;4139723;28;20209;-53
2022/06/05 01:32:03;;;;;;;2.28;2.08;;;;;;;19.22;75.61;98448.50;4146457;28;20299;-55
2022/06/05 01:34:04;;;;;;;2.55;2.35;;;;;;;19.23;75.66;98439.88;4130174;28;20956;-56
2022/06/05 01:36:20;;;;;;;2.63;2.42;;;;;;;19.30;75.31;98428.34;4146809;28;20300;-55
2022/06/05 01:38:33;;;;;;;3.05;2.75;;;;;;;19.32;75.25;98415.00;4130064;28;20228;-53
2022/06/05 01:40:37;;;;;;;2.28;2.13;;;;;;;19.40;74.94;98405.97;4132716;28;20240;-54
2022/06/05 01:42:57;;;;;;;3.45;2.63;;;;;;;19.34;75.57;98393.31;4128696;28;20288;-54
2022/06/05 01:45:12;;;;;;;2.45;2.20;;;;;;;19.36;75.69;98374.38;4145516;28;21016;-54
2022/06/05 01:47:19;;;;;;;2.70;2.50;;;;;;;19.33;75.80;98361.16;4132250;28;20312;-57
2022/06/05 01:49:29;;;;;;;2.22;2.03;;;;;;;19.35;75.61;98326.41;4136075;28;20228;-55
2022/06/05 01:51:36;;;;;;;2.10;1.98;;;;;;;19.38;75.37;98313.88;4130376;28;20218;-57
2022/06/05 01:53:43;;;;;;;2.83;2.33;;;;;;;19.35;75.62;98297.81;4150259;28;20224;-57
2022/06/05 01:55:57;;;;;;;2.50;2.30;;;;;;;19.39;75.43;98298.84;4145808;28;20235;-55
2022/06/05 01:58:02;;;;;;;2.70;2.50;;;;;;;19.39;75.23;98309.94;4128647;28;20267;-54
2022/06/05 02:00:09;;;;;;;3.00;2.25;;;;;;;19.47;75.23;98296.16;4125920;28;20210;-56
2022/06/05 02:02:14;;;;;;;2.70;2.50;;;;;;;19.41;75.41;98291.03;4146095;28;20205;-54
2022/06/05 02:04:19;;;;;;;2.70;2.28;;;;;;;19.37;75.50;98284.47;4131206;28;20347;-56
2022/06/05 02:06:25;;;;;;;2.70;2.42;;;;;;;19.40;75.51;98283.84;4144617;28;20213;-56
2022/06/05 02:08:32;;;;;;;2.25;2.05;;;;;;;19.32;75.67;98281.81;4151343;28;20279;-55
2022/06/05 02:10:41;;;;;;;3.22;2.97;;;;;;;19.30;75.44;98272.94;4129372;28;20600;-54
2022/06/05 02:12:43;;;;;;;3.22;2.97;;;;;;;19.23;75.71;98261.47;4127294;28;22039;-55
2022/06/05 02:14:45;;;;;;;2.20;2.00;;;;;;;19.20;75.99;98248.22;4131804;28;20236;-54
2022/06/05 02:16:47;;;;;;;2.67;2.47;;;;;;;19.20;75.72;98246.28;4134376;28;20392;-57
2022/06/05 02:18:50;;;;;;;2.20;2.00;;;;;;;19.17;75.86;98230.22;4124886;28;22168;-54
2022/06/05 02:20:52;;;;;;;3.30;2.97;;;;;;;19.19;75.50;98239.03;4150792;28;20251;-56
2022/06/05 02:22:54;;;;;;;2.38;2.17;;;;;;;19.19;75.36;98243.78;4150467;28;20673;-54
2022/06/05 02:24:56;;;;;;;3.42;3.15;;;;;;;19.12;75.51;98248.94;4133737;28;20296;-54
2022/06/05 02:26:59;;;;;;;2.88;2.67;;;;;;;19.15;75.32;98242.75;4134080;28;20210;-56
2022/06/05 02:29:04;;;;;;;2.33;2.13;;;;;;;19.13;75.56;98256.91;4144586;28;20235;-54
2022/06/05 02:31:08;;;;;;;3.33;2.42;;;;;;;19.21;75.36;98260.97;4144773;28;20209;-53
2022/06/05 02:33:52;;;;;;;2.40;2.20;;;;;;;19.23;75.07;98269.78;4143446;28;20235;-55
2022/06/05 02:36:02;;;;;;;2.45;2.25;;;;;;;19.21;75.04;98275.66;4065012;29;20642;-54
2022/06/05 02:38:19;;;;;;;2.35;2.15;;;;;;;19.23;74.88;98281.72;4105064;28;20276;-53
2022/06/05 02:40:38;;;;;;;2.10;1.90;;;;;;;19.21;74.86;98288.72;4129284;28;20201;-55
2022/06/05 02:43:09;;;;;;;2.97;2.67;;;;;;;19.22;74.81;98299.50;4147285;28;20256;-56
2022/06/05 02:45:35;;;;;;;3.40;3.15;;;;;;;19.25;74.67;98303.59;4124455;28;20212;-56
2022/06/05 02:48:00;;;;;;;3.13;2.80;;;;;;;19.31;74.42;98319.03;4129053;28;20269;-55
2022/06/05 02:50:11;;;;;;;2.90;2.40;;;;;;;19.32;74.23;98317.88;4137880;28;20688;-56
2022/06/05 02:52:14;;;;;;;1.75;1.65;;;;;;;19.35;74.15;98320.03;4129271;28;20210;-56
2022/06/05 02:54:26;;;;;;;1.90;1.80;;;;;;;19.36;74.02;98343.84;4132521;28;20216;-56
2022/06/05 02:56:30;;;;;;;2.42;1.80;;;;;;;19.36;73.64;98355.78;4135742;28;20570;-57
2022/06/05 02:58:32;;;;;;;2.45;1.95;;;;;;;19.39;73.49;98362.69;4132067;28;20202;-55
2022/06/05 03:00:36;;;;;;;2.15;1.88;;;;;;;19.42;73.59;98370.38;4133379;28;20255;-56
2022/06/05 03:04:58;;;;;;;2.10;1.73;;;;;;;19.44;73.53;98385.59;4155773;28;20343;-54
2022/06/05 03:07:00;;;;;;;2.30;2.10;;;;;;;19.46;73.48;98388.06;4139021;28;20253;-54
2022/06/05 03:09:03;;;;;;;2.30;2.10;;;;;;;19.54;73.60;98395.66;4137036;28;20304;-57
2022/06/05 03:11:12;;;;;;;2.40;2.20;;;;;;;19.43;73.62;98399.78;4136250;28;20838;-55
2022/06/05 03:13:15;;;;;;;4.32;2.17;;;;;;;19.42;73.67;98409.22;4135459;28;20645;-57
2022/06/05 03:15:16;;;;;;;2.95;2.75;;;;;;;19.38;73.83;98433.22;4132968;28;20205;-57
2022/06/05 03:17:18;;;;;;;2.83;2.63;;;;;;;19.30;74.59;98445.84;4140515;28;20334;-54
2022/06/05 03:19:20;;;;;;;1.98;1.77;;;;;;;19.30;74.14;98445.00;4138347;28;20682;-54
2022/06/05 03:21:22;;;;;;;2.45;2.25;;;;;;;19.28;74.36;98447.28;4140682;28;20225;-55
2022/06/05 03:23:25;;;;;;;2.63;2.25;;;;;;;19.19;75.33;98452.69;4131845;28;20240;-55
2022/06/05 03:25:27;;;;;;;2.30;2.10;;;;;;;19.21;74.96;98457.97;4151040;28;20562;-58
2022/06/05 03:27:30;;;;;;;2.85;2.42;;;;;;;19.10;76.15;98478.66;4129620;28;20209;-55
2022/06/05 03:29:31;;;;;;;2.63;2.42;;;;;;;19.13;75.87;98489.16;4134452;28;20830;-56
2022/06/05 03:31:35;;;;;;;3.22;2.92;;;;;;;18.96;77.14;98488.91;4124153;28;20210;-57
2022/06/05 03:33:37;;;;;;;2.42;2.22;;;;;;;18.98;76.91;98504.13;4125043;28;20364;-56
2022/06/05 03:35:42;;;;;;;2.80;2.60;;;;;;;18.92;77.25;98533.06;4130081;28;20256;-55
2022/06/05 03:37:45;;;;;;;2.75;2.55;;;;;;;18.94;76.95;98554.97;4142315;28;21001;-57
2022/06/05 03:39:47;;;;;;;2.78;2.58;;;;;;;18.93;77.46;98554.13;4135889;28;20209;-55
2022/06/05 03:41:49;;;;;;;2.83;2.63;;;;;;;18.97;77.46;98537.72;4139458;28;20237;-56
2022/06/05 03:43:50;;;;;;;3.25;2.95;;;;;;;19.00;77.36;98539.88;4136530;28;20221;-57
2022/06/05 03:46:00;;;;;;;3.40;3.10;;;;;;;19.03;77.25;98551.19;4151809;28;20201;-58
2022/06/05 03:48:02;;;;;;;3.22;2.92;;;;;;;19.08;77.02;98541.97;4130714;28;20264;-56
2022/06/05 03:50:06;;;;;;;2.88;2.63;;;;;;;19.12;75.93;98526.38;4135150;28;20264;-55
2022/06/05 03:52:09;;;;;;;3.00;2.70;;;;;;;19.17;75.44;98534.59;4134504;28;20809;-56
2022/06/05 03:54:11;;;;;;;2.80;2.38;;;;;;;19.20;75.57;98525.69;4119487;28;20225;-55
2022/06/05 03:56:16;;;;;;;2.60;2.40;;;;;;;19.23;75.63;98541.72;4130825;28;20206;-56
2022/06/05 03:58:18;;;;;;;2.28;2.08;;;;;;;19.24;76.07;98535.06;4154539;28;20236;-55
2022/06/05 04:00:22;;;;;;;2.45;2.25;;;;;;;19.26;76.25;98532.78;4134069;28;20198;-55
2022/06/05 04:02:25;;;;;;;2.53;2.33;;;;;;;19.26;76.03;98532.78;4152375;28;20579;-55
2022/06/05 04:04:27;;;;;;;3.30;2.30;;;;;;;19.26;75.67;98541.13;4140313;28;20259;-55
2022/06/05 04:06:30;;;;;;;2.95;2.72;;;;;;;19.28;76.09;98538.84;4131153;28;20269;-56
2022/06/05 04:08:34;;;;;;;2.65;2.40;;;;;;;19.26;76.66;98541.13;4141334;28;20225;-57
2022/06/05 04:10:37;;;;;;;2.80;2.55;;;;;;;19.24;76.43;98540.59;4154702;28;20702;-54
2022/06/05 04:12:39;;;;;;;2.75;2.47;;;;;;;19.24;76.26;98546.16;4155881;28;20232;-54
2022/06/05 04:14:41;;;;;;;3.13;2.30;;;;;;;19.25;76.65;98533.94;4155548;28;20208;-55
2022/06/05 04:16:42;;;;;;;2.60;2.40;;;;;;;19.33;76.67;98538.78;4144640;28;20213;-54
2022/06/05 04:18:45;;;;;;;2.28;2.08;;;;;;;19.23;77.22;98533.38;4136320;28;20221;-54
2022/06/05 04:20:47;;;;;;;2.30;2.10;;;;;;;19.19;77.27;98541.47;4143620;28;20314;-55
2022/06/05 04:22:49;;;;;;;2.92;2.28;;;;;;;19.19;77.08;98549.00;4142753;28;20228;-54
2022/06/05 04:24:50;;;;;;;2.97;2.78;;;;;;;19.17;77.34;98556.81;4142908;28;20206;-54
2022/06/05 04:26:52;;;;;;;2.28;2.08;;;;;;;19.17;76.67;98560.38;4157358;28;20215;-53
2022/06/05 04:28:54;;;;;;;3.20;2.88;;;;;;;19.15;77.08;98554.31;4127250;28;20273;-54
2022/06/05 04:30:56;;;;;;;3.53;3.13;;;;;;;19.15;77.88;98553.50;4146346;28;20217;-53
2022/06/05 04:32:59;;;;;;;3.05;2.85;;;;;;;19.13;77.41;98555.75;4140151;28;20221;-54
2022/06/05 04:35:01;;;;;;;2.50;2.30;;;;;;;19.14;77.71;98558.22;4140357;28;20206;-55
2022/06/05 04:37:03;;;;;;;5.45;3.53;;;;;;;19.15;77.71;98536.84;4156284;28;20213;-54
2022/06/05 04:39:05;;;;;;;3.72;3.42;;;;;;;19.16;78.03;98544.03;4137076;28;20237;-54
2022/06/05 04:41:07;;;;;;;2.92;2.72;;;;;;;19.10;78.19;98529.44;4140724;28;20275;-53
2022/06/05 04:43:09;;;;;;;2.97;2.67;;;;;;;19.10;78.53;98539.69;4136916;28;20222;-53
2022/06/05 04:45:11;;;;;;;7.07;4.32;;;;;;;19.07;78.76;98529.22;4123503;28;20213;-54
2022/06/05 04:47:13;;;;;;;5.15;4.75;;;;;;;18.87;81.24;98507.38;4152372;28;20205;-55
2022/06/05 04:49:15;;;;;;;3.67;3.38;;;;;;;18.61;83.11;98475.66;4141357;28;20280;-54
2022/06/05 04:51:18;;;;;;;4.97;4.50;;;;;;;18.41;83.64;98482.38;4153252;28;20787;-54
2022/06/05 04:53:20;;;;;;;5.20;4.70;;;;;;;18.27;84.45;98466.78;4155868;28;20229;-54
2022/06/05 04:55:22;;;;;;;3.90;3.60;;;;;;;18.34;84.12;98470.00;4141937;28;20218;-54
2022/06/05 04:57:24;;;;;;;4.13;3.75;;;;;;;18.40;83.56;98474.34;4136089;28;20206;-54
2022/06/05 04:59:25;;;;;;;4.43;4.03;;;;;;;18.46;82.58;98460.09;4138626;28;20198;-55
2022/06/05 05:01:30;;;;;;;4.22;3.83;;;;;;;18.51;83.22;98465.56;4155126;28;20246;-55
2022/06/05 05:03:31;;;;;;;5.80;5.30;;;;;;;18.45;83.67;98449.34;4134929;28;20284;-55
2022/06/05 05:05:34;;;;;;;4.28;3.90;;;;;;;18.46;83.37;98456.53;4141547;28;20710;-53
2022/06/05 05:07:36;;;;;;;4.97;4.57;;;;;;;18.39;83.69;98448.56;4141670;28;20205;-53
2022/06/05 05:09:38;;;;;;;4.90;4.40;;;;;;;18.45;83.38;98464.00;4157152;28;20291;-55
2022/06/05 05:11:40;;;;;;;3.40;3.17;;;;;;;18.51;82.59;98470.31;4136803;28;20264;-54
2022/06/05 05:13:41;;;;;;;4.45;4.05;;;;;;;18.59;82.10;98472.38;4135926;28;20284;-54
2022/06/05 05:15:52;;;;;;;5.38;4.07;;;;;;;18.65;81.59;98460.88;4135028;28;20217;-54
2022/06/05 05:17:53;;;;;;;3.63;3.33;;;;;;;18.71;81.22;98453.34;4141135;28;20252;-54
2022/06/05 05:19:56;;;;;;;4.28;3.78;;;;;;;18.75;80.34;98459.91;4139274;28;20213;-55
2022/06/05 05:21:58;;;;;;;4.78;4.28;;;;;;;18.67;82.56;98443.97;4132400;28;20692;-54
2022/06/05 05:24:00;;;;;;;4.07;3.78;;;;;;;18.67;82.91;98435.66;4152494;28;20282;-54
2022/06/05 05:26:12;;;;;;;4.22;3.90;;;;;;;18.68;82.59;98431.75;4131909;28;20209;-54
2022/06/05 05:28:15;;;;;;;4.13;3.80;;;;;;;18.72;82.49;98427.25;4136046;28;20244;-54
2022/06/05 05:30:17;;;;;;;4.65;4.28;;;;;;;18.73;82.71;98417.78;4142038;28;20306;-53
2022/06/05 05:32:18;;;;;;;4.65;4.25;;;;;;;18.57;84.10;98400.59;4153721;28;20205;-55
2022/06/05 05:34:20;;;;;;;5.00;4.57;;;;;;;18.62;83.94;98389.44;4154047;28;20209;-53
2022/06/05 05:36:23;;;;;;;5.57;5.07;;;;;;;18.45;85.08;98378.09;4135143;28;20917;-54
2022/06/05 05:38:25;;;;;;;5.00;4.60;;;;;;;18.54;84.55;98375.44;4155146;28;20205;-54
2022/06/05 05:42:47;;;;;;;8.38;4.28;;;;;;;18.74;83.68;98369.53;4153807;28;20594;-54
2022/06/05 05:44:51;;;;;;;6.20;5.60;;;;;;;18.76;83.56;98351.47;4141233;28;20209;-54
2022/06/05 05:46:53;;;;;;;4.40;4.00;;;;;;;18.71;84.84;98346.00;4142550;28;20304;-53
2022/06/05 05:48:54;;;;;;;4.40;4.10;;;;;;;18.80;84.10;98335.03;4134955;28;20248;-55
2022/06/05 05:50:56;;;;;;;5.45;4.63;;;;;;;18.75;84.67;98315.72;4141093;28;20240;-55
2022/06/05 05:52:58;;;;;;;5.45;4.95;;;;;;;18.81;84.67;98325.59;4141117;28;20271;-53
2022/06/05 05:55:01;;;;;;;4.47;3.97;;;;;;;18.91;83.91;98333.72;4140248;28;20205;-54
2022/06/05 05:57:09;;;;;;;4.82;4.40;;;;;;;19.05;83.16;98340.06;4141237;28;20216;-53
2022/06/05 05:59:11;;;;;;;5.28;4.15;;;;;;;19.14;82.92;98352.09;4135017;28;20656;-54
2022/06/05 06:01:13;;;;;;;4.22;3.88;;;;;;;19.08;83.16;98342.22;4133605;28;20210;-54
2022/06/05 06:03:15;;;;;;;4.97;4.30;;;;;;;19.23;82.69;98345.53;4138898;28;20276;-54
2022/06/05 06:05:20;;;;;;;4.47;4.00;;;;;;;19.21;83.19;98344.19;4132856;28;20300;-54
2022/06/05 06:07:22;;;;;;;4.03;3.72;;;;;;;19.23;82.69;98344.69;4152948;28;20212;-54
2022/06/05 06:09:23;;;;;;;3.42;3.20;;;;;;;19.09;83.80;98338.31;4118430;28;20276;-55
2022/06/05 06:11:26;;;;;;;4.00;3.70;;;;;;;19.21;83.65;98335.88;4150852;28;20236;-53
2022/06/05 06:13:29;;;;;;;8.75;5.25;;;;;;;19.32;83.46;98331.75;4136068;28;20237;-55
2022/06/05 06:15:31;;;;;;;4.97;4.57;;;;;;;19.31;83.71;98335.66;4148723;28;20204;-53
2022/06/05 06:17:32;;;;;;;5.60;5.10;;;;;;;19.43;83.54;98322.06;4153220;28;20219;-53
2022/06/05 06:19:34;;;;;;;4.95;4.05;;;;;;;19.42;83.70;98320.41;4131520;28;20209;-53
2022/06/05 06:21:36;;;;;;;5.55;5.05;;;;;;;19.55;82.73;98316.78;4151616;28;20208;-54
2022/06/05 06:23:43;;;;;;;4.68;4.28;;;;;;;19.39;82.43;98309.94;4135711;28;20276;-54
2022/06/05 06:25:45;;;;;;;4.43;4.13;;;;;;;19.52;81.95;98303.53;4140111;28;20638;-54
2022/06/05 06:27:47;;;;;;;3.65;3.42;;;;;;;19.58;82.21;98307.84;4140402;28;20205;-55
2022/06/05 06:29:49;;;;;;;4.85;4.50;;;;;;;19.39;82.51;98296.88;4135478;28;20308;-54
2022/06/05 06:31:50;;;;;;;4.75;4.35;;;;;;;19.41;82.61;98302.97;4134528;28;20224;-53
2022/06/05 06:33:52;;;;;;;5.85;5.35;;;;;;;19.30;82.69;98303.47;4151338;28;20319;-55
2022/06/05 06:35:54;;;;;;;4.30;4.00;;;;;;;19.29;83.19;98299.06;4137056;28;20202;-54
2022/06/05 06:37:56;;;;;;;4.40;4.00;;;;;;;19.46;82.71;98290.91;4132255;28;20271;-54
2022/06/05 06:39:57;;;;;;;5.40;4.35;;;;;;;19.51;82.21;98285.25;4136576;28;20556;-53
2022/06/05 06:41:59;;;;;;;5.22;4.82;;;;;;;19.33;82.71;98289.81;4135210;28;20272;-53
2022/06/05 06:44:03;;;;;;;4.45;4.05;;;;;;;19.42;82.56;98293.50;4135929;28;20221;-54
2022/06/05 06:46:05;;;;;;;4.35;4.00;;;;;;;19.46;82.86;98286.16;4152823;28;20237;-55
2022/06/05 06:48:07;;;;;;;5.03;4.63;;;;;;;19.43;82.75;98294.28;4149891;28;20283;-54
2022/06/05 06:50:12;;;;;;;5.40;4.90;;;;;;;19.63;82.66;98293.81;4140157;28;20237;-53
2022/06/05 06:52:14;;;;;;;4.80;4.32;;;;;;;19.70;82.60;98308.09;4118952;28;20225;-54
2022/06/05 06:54:16;;;;;;;5.45;4.50;;;;;;;19.76;82.33;98307.69;4141284;28;21196;-53
2022/06/05 06:56:21;;;;;;;4.82;4.43;;;;;;;19.80;82.50;98305.09;4138743;28;21025;-54
2022/06/05 06:58:27;;;;;;;8.57;4.25;;;;;;;19.67;81.93;98312.34;4136802;28;20212;-54
2022/06/05 07:00:29;;;;;;;5.15;4.75;;;;;;;19.66;82.07;98304.31;4119247;28;20306;-54
2022/06/05 07:02:30;;;;;;;5.63;5.00;;;;;;;19.65;82.05;98327.69;4140739;28;20241;-54
2022/06/05 07:04:32;;;;;;;4.80;4.40;;;;;;;19.67;82.54;98330.94;4134044;28;20206;-54
2022/06/05 07:06:34;;;;;;;5.45;4.95;;;;;;;19.67;83.15;98340.13;4151214;28;20197;-54
2022/06/05 07:08:36;;;;;;;5.63;5.13;;;;;;;19.68;82.74;98343.69;4151199;28;20212;-54
2022/06/05 07:10:38;;;;;;;4.53;4.13;;;;;;;19.55;82.42;98347.31;4137594;28;20212;-55
2022/06/05 07:12:40;;;;;;;5.85;5.43;;;;;;;19.61;82.92;98351.63;4121649;28;20312;-55
2022/06/05 07:14:41;;;;;;;4.30;3.95;;;;;;;19.68;83.03;98352.03;4136803;28;20636;-55
2022/06/05 07:16:43;;;;;;;4.68;4.25;;;;;;;19.71;82.57;98363.31;4136430;28;20766;-55
2022/06/05 07:18:45;;;;;;;4.93;4.60;;;;;;;19.71;82.91;98356.97;4136376;28;20256;-54
2022/06/05 07:20:47;;;;;;;3.80;3.50;;;;;;;19.70;82.49;98363.63;4134550;28;20209;-55
2022/06/05 07:22:49;;;;;;;4.88;4.47;;;;;;;19.67;82.55;98369.81;4139832;28;20224;-55
2022/06/05 07:24:55;;;;;;;5.40;5.00;;;;;;;19.68;82.64;98374.25;4152611;28;20952;-56
2022/06/05 07:26:57;;;;;;;4.05;3.75;;;;;;;19.67;82.49;98367.03;4134100;28;20209;-56
2022/06/05 07:28:59;;;;;;;6.25;5.38;;;;;;;19.63;82.31;98361.28;4116368;28;20198;-56
2022/06/05 07:31:02;;;;;;;4.68;4.28;;;;;;;19.64;82.36;98351.03;4152553;28;20259;-56
2022/06/05 07:33:04;;;;;;;6.80;5.30;;;;;;;19.61;82.71;98346.91;4150135;28;20298;-55
2022/06/05 07:35:06;;;;;;;4.57;4.07;;;;;;;19.61;82.78;98346.09;4133684;28;20228;-54
2022/06/05 07:37:07;;;;;;;5.15;4.75;;;;;;;19.56;82.18;98346.19;4137443;28;20710;-55
2022/06/05 07:39:09;;;;;;;5.57;5.07;;;;;;;19.38;82.87;98347.16;4136821;28;20205;-55
2022/06/05 07:41:18;;;;;;;6.13;5.63;;;;;;;19.41;82.82;98347.38;4134420;28;20209;-55
2022/06/05 07:43:21;;;;;;;4.82;4.43;;;;;;;19.31;83.63;98346.78;4138862;28;20243;-54
2022/06/05 07:45:23;;;;;;;5.85;5.38;;;;;;;19.35;84.09;98343.06;4134325;28;20225;-55
2022/06/05 07:47:30;;;;;;;5.55;5.10;;;;;;;19.41;83.75;98346.53;4158567;28;20207;-54
2022/06/05 07:49:34;;;;;;;5.88;5.35;;;;;;;19.51;83.34;98336.03;4158854;28;20275;-55
2022/06/05 07:56:18;;;;;;;5.13;4.60;;;;;;;19.78;83.50;98346.25;4153292;28;20219;-55
2022/06/05 07:58:20;;;;;;;4.93;4.53;;;;;;;19.82;82.54;98341.69;4135144;28;20216;-54
2022/06/05 08:00:23;;;;;;;5.40;4.95;;;;;;;19.87;82.14;98349.91;4143214;28;20679;-54
2022/06/05 08:02:27;;;;;;;5.30;4.90;;;;;;;19.96;82.48;98353.56;4126565;28;21119;-54
2022/06/05 08:04:34;;;;;;;4.43;4.00;;;;;;;20.01;81.63;98347.91;4140537;28;20205;-54
2022/06/05 08:06:36;;;;;;;5.13;4.68;;;;;;;20.09;81.65;98349.94;4138365;28;20343;-55
2022/06/05 08:08:37;;;;;;;5.80;5.30;;;;;;;20.17;81.35;98352.81;4141624;28;20205;-55
2022/06/05 08:10:39;;;;;;;5.03;4.63;;;;;;;20.21;81.63;98353.00;4135181;28;20339;-55
2022/06/05 08:12:41;;;;;;;5.63;5.22;;;;;;;20.30;81.33;98354.69;4134828;28;20256;-53
2022/06/05 08:14:44;;;;;;;4.25;3.95;;;;;;;20.42;81.04;98345.78;4138812;28;20577;-54
2022/06/05 08:16:46;;;;;;;5.10;4.68;;;;;;;20.49;80.83;98354.47;4153447;28;20216;-55
2022/06/05 08:18:51;;;;;;;5.55;5.07;;;;;;;20.60;80.56;98353.09;4154721;28;21028;-54
2022/06/05 08:20:53;;;;;;;5.38;4.75;;;;;;;20.66;80.22;98358.22;4137134;28;20222;-54
2022/06/05 08:22:56;;;;;;;6.35;5.38;;;;;;;20.71;79.82;98354.47;4121860;28;20711;-56
2022/06/05 08:24:58;;;;;;;5.38;4.88;;;;;;;20.61;79.50;98355.56;4138392;28;20571;-54
2022/06/05 08:27:00;;;;;;;5.00;4.55;;;;;;;20.54;79.52;98371.03;4155889;28;20212;-55
2022/06/05 08:29:02;;;;;;;5.70;5.20;;;;;;;20.48;79.71;98355.63;4133912;28;20209;-57
2022/06/05 08:31:04;;;;;;;4.68;4.38;;;;;;;20.46;79.94;98346.78;4141456;28;20205;-54
2022/06/05 08:33:07;;;;;;;6.95;6.35;;;;;;;20.40;79.79;98353.63;4141307;28;20758;-55
2022/06/05 08:35:09;;;;;;;5.55;5.05;;;;;;;20.31;79.83;98349.97;4151227;28;20204;-56
2022/06/05 08:42:32;;;;;;;5.72;5.20;;;;;;;20.21;80.34;98355.78;4154546;28;20243;-54
2022/06/05 08:44:55;;;;;;;4.90;4.50;;;;;;;20.17;79.99;98357.56;4155944;28;20205;-53
2022/06/05 08:47:20;;;;;;;6.45;5.95;;;;;;;20.02;80.84;98349.53;4135470;28;20205;-54
2022/06/05 08:49:45;;;;;;;5.70;5.20;;;;;;;20.04;80.60;98356.44;4142238;28;20244;-53
2022/06/05 08:51:48;;;;;;;6.03;5.53;;;;;;;20.01;80.88;98361.78;4137720;28;20243;-54
2022/06/05 08:53:58;;;;;;;5.88;5.35;;;;;;;20.04;81.13;98361.19;4136663;28;20232;-55
2022/06/05 08:56:01;;;;;;;6.32;5.82;;;;;;;20.06;81.22;98358.94;4121542;28;20208;-55
2022/06/05 08:58:24;;;;;;;6.95;6.25;;;;;;;20.08;81.06;98357.47;4128793;28;20217;-54
2022/06/05 09:00:32;;;;;;;5.72;5.22;;;;;;;20.10;81.21;98359.97;4157244;28;20207;-54
2022/06/05 09:02:50;;;;;;;7.28;6.00;;;;;;;20.15;80.85;98357.03;4137686;28;20229;-54
2022/06/05 09:04:59;;;;;;;5.82;5.35;;;;;;;20.16;80.82;98345.59;4138767;28;20244;-54
2022/06/05 09:07:05;;;;;;;6.55;5.95;;;;;;;20.20;80.82;98349.41;4154549;28;20200;-55
2022/06/05 09:09:18;;;;;;;6.53;5.93;;;;;;;20.25;80.70;98345.69;4137581;28;20201;-55
2022/06/05 09:11:33;;;;;;;7.25;6.35;;;;;;;20.25;80.91;98345.69;4145443;28;20254;-55
2022/06/05 09:14:00;;;;;;;5.13;4.72;;;;;;;20.28;80.03;98353.38;4152926;28;20714;-54
2022/06/05 09:16:11;;;;;;;6.35;5.85;;;;;;;20.29;80.49;98349.44;4138274;28;20653;-53
2022/06/05 09:18:19;;;;;;;5.63;5.13;;;;;;;20.29;80.58;98343.88;4122903;28;20197;-55
2022/06/05 09:20:31;;;;;;;6.75;4.88;;;;;;;20.24;80.17;98344.84;4144971;28;20295;-54
2022/06/05 09:22:39;;;;;;;5.85;5.35;;;;;;;20.23;80.44;98348.75;4119668;28;20260;-55
2022/06/05 09:24:47;;;;;;;6.45;5.85;;;;;;;20.22;80.65;98338.78;4154313;28;20222;-54
2022/06/05 09:27:21;;;;;;;6.15;5.65;;;;;;;20.19;81.13;98335.81;4155842;28;20612;-55
2022/06/05 09:29:47;;;;;;;6.68;6.10;;;;;;;20.21;81.03;98333.53;4111751;28;20503;-55
2022/06/05 09:32:19;;;;;;;5.90;5.40;;;;;;;20.18;80.53;98332.22;4151762;28;20204;-56
2022/06/05 09:34:31;;;;;;;6.45;5.95;;;;;;;20.15;79.99;98315.34;4122337;28;20619;-54
2022/06/05 09:36:41;;;;;;;6.45;5.22;;;;;;;20.01;81.07;98320.94;4151005;28;22006;-55
2022/06/05 09:38:50;;;;;;;6.35;5.75;;;;;;;19.99;81.11;98320.44;4138863;28;20798;-55
2022/06/05 09:41:12;;;;;;;6.03;5.53;;;;;;;19.98;81.87;98313.22;4148534;28;20281;-56
2022/06/05 09:43:38;;;;;;;5.28;4.78;;;;;;;20.00;81.87;98304.59;4136346;28;20239;-56
2022/06/05 09:46:19;;;;;;;6.50;6.00;;;;;;;20.00;82.22;98321.25;4139354;28;20301;-55
2022/06/05 09:48:57;;;;;;;5.03;4.55;;;;;;;20.09;81.75;98320.22;4130983;28;20240;-56
2022/06/05 09:50:59;;;;;;;6.55;6.05;;;;;;;20.25;81.23;98323.44;4141801;28;20225;-56
2022/06/05 09:53:00;;;;;;;6.15;5.65;;;;;;;20.24;81.18;98327.38;4135284;28;20221;-56
2022/06/05 09:55:08;;;;;;;7.50;6.05;;;;;;;20.33;81.08;98333.78;4155671;28;20631;-56
2022/06/05 09:59:55;;;;;;;5.85;5.45;;;;;;;20.40;81.19;98331.38;4153823;28;20209;-56
2022/06/05 10:02:05;;;;;;;5.85;5.35;;;;;;;20.48;80.76;98328.66;4137272;28;20577;-56
2022/06/05 10:04:07;;;;;;;7.00;6.40;;;;;;;20.62;80.21;98315.47;4153836;28;20755;-56
2022/06/05 10:06:23;;;;;;;6.05;5.55;;;;;;;20.82;80.07;98312.13;4141328;28;20204;-55
2022/06/05 10:08:30;;;;;;;5.22;4.82;;;;;;;20.88;79.11;98318.41;4137483;28;20200;-56
2022/06/05 10:10:38;;;;;;;6.65;6.07;;;;;;;20.87;79.40;98319.50;4136598;28;20221;-55
2022/06/05 10:12:47;;;;;;;5.85;5.32;;;;;;;20.75;79.93;98313.72;4134360;28;20238;-56